Latest Weather Observations for Westmere

IDV60801

Issued at 5:32 pm EST Saturday 2 July 2016 (issued every 30 minutes, with the page automatically refreshed every 10 minutes)

About weather observations | Map of weather stations | Latest weather observations for VIC | Other Formats
Station Details ID: 089112 Name: WESTMERE Lat: -37.71 Lon: 142.94 Height: 226.0 m
Data from the previous 72 hours. | See also: Recent months at Westmere
Date/Time
EST
Temp
°C
App
Temp
°C
Dew
Point
°C
Rel
Hum
%
Delta-T
°C
Wind Press
QNH
hPa
Press
MSL
hPa
Rain since
9am
mm
Dir  Spd
km/h
Gust
km/h
Spd
kts
Gust
kts
02/05:30pm 12.0 10.5 9.0 82 1.5 W 7 11 4 6 1024.8 1025.3 0.2
02/05:00pm 12.2 9.9 8.9 80 1.7 W 11 15 6 8 1024.6 1025.1 0.2
02/04:30pm 12.4 9.6 8.7 78 1.9 WNW 13 19 7 10 1024.6 1025.1 0.2
02/04:00pm 12.6 10.1 8.3 75 2.1 WNW 11 17 6 9 1024.7 1025.2 0.2
02/03:30pm 13.3 10.5 8.6 73 2.4 WNW 13 17 7 9 1024.6 1025.1 0.2
02/03:00pm 13.1 9.8 8.0 71 2.5 W 15 24 8 13 1024.5 1025.0 0.2
02/02:30pm 13.6 10.7 8.2 70 2.7 W 13 20 7 11 1024.5 1025.0 0.2
02/02:00pm 12.5 8.9 8.2 75 2.1 WSW 17 24 9 13 1024.7 1025.2 0.2
02/01:30pm 12.4 9.0 9.2 81 1.6 W 17 28 9 15 1024.8 1025.3 0.2
02/01:00pm 11.5 7.6 9.6 88 1.0 W 20 30 11 16 1025.1 1025.6 0.2
02/12:30pm 12.3 8.5 9.0 80 1.7 W 19 26 10 14 1025.4 1025.9 0.2
02/12:00pm 11.9 8.2 9.3 84 1.3 WNW 19 26 10 14 1025.8 1026.3 0.2
02/11:30am 11.9 8.1 8.9 82 1.5 WNW 19 28 10 15 1026.0 1026.5 0.2
02/11:00am 11.1 7.1 9.2 88 1.0 WNW 20 28 11 15 1025.9 1026.4 0.2
02/10:30am 12.1 8.7 9.1 82 1.5 WNW 17 26 9 14 1025.9 1026.4 0.2
02/10:00am 11.4 8.3 8.8 84 1.3 WNW 15 22 8 12 1025.8 1026.3 0.2
02/09:30am 10.4 7.2 8.5 88 0.9 WNW 15 19 8 10 1025.6 1026.1 0.0
02/09:00am 9.7 6.8 8.3 91 0.7 NW 13 17 7 9 1025.3 1025.8 1.2
02/08:30am 8.8 5.5 7.9 94 0.4 NW 15 17 8 9 1025.2 1025.7 1.2
02/08:00am 7.8 4.6 6.7 93 0.5 NW 13 15 7 8 1025.1 1025.6 1.2
02/07:30am 8.5 5.0 7.3 92 0.6 WNW 15 19 8 10 1024.7 1025.2 1.2
02/07:00am 8.6 5.6 7.5 93 0.5 NW 13 17 7 9 1024.3 1024.8 1.2
02/06:30am 7.9 5.1 6.8 93 0.5 WNW 11 15 6 8 1024.1 1024.5 1.2
02/06:00am 8.3 5.2 7.1 92 0.6 WNW 13 20 7 11 1023.8 1024.2 1.2
02/05:30am 9.0 5.7 7.9 93 0.5 WNW 15 22 8 12 1023.6 1024.0 1.2
02/05:00am 9.5 6.3 8.3 92 0.6 WNW 15 20 8 11 1023.4 1023.8 1.2
02/04:30am 9.5 6.0 8.9 96 0.3 WNW 17 20 9 11 1023.4 1023.8 1.2
02/04:00am 9.6 6.9 9.0 96 0.3 WNW 13 24 7 13 1023.3 1023.7 1.2
02/03:30am 9.5 6.7 8.7 95 0.4 NW 13 17 7 9 1023.4 1023.8 0.8
02/03:00am 9.5 6.4 8.7 95 0.4 NW 15 19 8 10 1023.2 1023.6 0.6
02/02:30am 9.5 6.3 8.6 94 0.4 NW 15 19 8 10 1023.2 1023.6 0.6
02/02:00am 9.4 5.8 8.5 94 0.4 NW 17 22 9 12 1023.2 1023.6 0.6
02/01:30am 9.4 6.7 8.8 96 0.3 NNW 13 17 7 9 1023.1 1023.5 0.6
02/01:00am 9.4 6.6 8.6 95 0.4 NW 13 17 7 9 1023.4 1023.8 0.6
02/12:30am 9.8 7.1 9.0 95 0.4 NW 13 19 7 10 1023.4 1023.8 0.6
02/12:00am 9.7 7.0 9.1 96 0.3 NW 13 17 7 9 1023.5 1023.9 0.6
 
Date/Time
EST
Temp
°C
App
Temp
°C
Dew
Point
°C
Rel
Hum
%
Delta-T
°C
Wind Press
QNH
hPa
Press
MSL
hPa
Rain since
9am
mm
Dir  Spd
km/h
Gust
km/h
Spd
kts
Gust
kts
01/11:30pm 9.8 6.4 9.0 95 0.4 NW 17 20 9 11 1023.4 1023.8 0.6
01/11:00pm 9.2 6.7 8.4 95 0.4 NW 11 15 6 8 1023.3 1023.7 0.6
01/10:30pm 9.1 7.0 8.3 95 0.4 NNW 9 13 5 7 1023.3 1023.7 0.6
01/10:00pm 9.3 6.1 8.5 95 0.4 NW 15 19 8 10 1023.3 1023.7 0.4
01/09:30pm 9.5 5.8 8.1 91 0.7 NNW 17 20 9 11 1023.3 1023.7 0.2
01/09:00pm 9.5 6.2 7.9 90 0.8 NNW 15 22 8 12 1023.3 1023.7 0.2
01/08:30pm 9.4 6.8 7.8 90 0.8 NNW 11 15 6 8 1023.1 1023.5 0.2
01/08:00pm 9.1 6.2 8.2 94 0.4 NNW 13 17 7 9 1023.0 1023.4 0.2
01/07:30pm 9.0 5.7 8.2 95 0.4 NNW 15 19 8 10 1022.8 1023.2 0.2
01/07:00pm 9.1 5.5 8.2 94 0.4 N 17 20 9 11 1022.4 1022.8 0.2
01/06:30pm 9.1 6.2 8.3 95 0.4 NNW 13 15 7 8 1022.6 1023.0 0.2
01/06:00pm 8.9 6.4 8.0 94 0.4 NNW 11 15 6 8 1022.2 1022.6 0.2
01/05:30pm 9.7 6.5 8.6 93 0.5 W 15 22 8 12 1022.1 1022.5 0.2
01/05:00pm 10.6 7.2 7.8 83 1.4 WNW 15 26 8 14 1021.8 1022.2 0.2
01/04:30pm 10.8 7.0 7.7 81 1.5 WNW 17 24 9 13 1021.5 1022.0 0.2
01/04:00pm 11.0 6.9 7.7 80 1.6 WNW 19 28 10 15 1021.2 1021.7 0.2
01/03:30pm 11.1 7.3 7.6 79 1.7 W 17 24 9 13 1021.2 1021.7 0.2
01/03:00pm 11.0 7.2 7.5 79 1.7 W 17 24 9 13 1021.0 1021.5 0.2
01/02:30pm 11.1 6.8 7.0 76 2.0 W 19 28 10 15 1020.9 1021.4 0.2
01/02:00pm 11.0 7.1 7.1 77 1.9 W 17 24 9 13 1020.8 1021.3 0.2
01/01:30pm 11.2 7.3 7.3 77 1.9 W 17 26 9 14 1020.9 1021.4 0.2
01/01:00pm 11.0 7.1 7.1 77 1.9 WNW 17 24 9 13 1021.0 1021.5 0.2
01/12:30pm 10.2 5.2 6.4 77 1.8 W 22 32 12 17 1021.3 1021.8 0.2
01/12:00pm 10.3 5.9 6.6 78 1.8 W 19 28 10 15 1021.4 1021.9 0.2
01/11:30am 10.1 5.4 6.1 76 1.9 W 20 26 11 14 1021.4 1021.9 0.2
01/11:00am 9.6 5.4 5.8 77 1.8 W 17 26 9 14 1021.6 1022.1 0.2
01/10:30am 9.3 5.1 5.5 77 1.7 W 17 26 9 14 1021.4 1021.9 0.2
01/10:00am 8.6 5.0 5.2 79 1.5 W 13 20 7 11 1021.0 1021.5 0.2
01/09:30am 8.4 4.8 5.2 80 1.4 W 13 22 7 12 1020.7 1021.1 0.2
01/09:00am 7.4 4.1 4.7 83 1.2 W 11 19 6 10 1020.4 1020.8 11.2
01/08:30am 6.9 4.1 5.1 88 0.8 W 9 13 5 7 1020.0 1020.4 11.2
01/08:00am 7.3 4.6 5.6 89 0.8 W 9 15 5 8 1019.6 1020.0 11.2
01/07:30am 7.3 4.8 6.6 95 0.3 W 9 13 5 7 1019.2 1019.6 11.2
01/07:00am 7.6 5.6 7.0 96 0.3 W 7 9 4 5 1018.7 1019.1 11.2
01/06:30am 7.6 3.7 6.9 95 0.3 SW 17 24 9 13 1018.3 1018.6 11.2
01/06:00am 7.6 3.7 6.9 95 0.3 WSW 17 26 9 14 1017.8 1018.1 11.0
01/05:30am 7.7 3.8 7.0 95 0.3 WSW 17 24 9 13 1017.4 1017.7 10.8
01/05:00am 8.0 3.8 7.4 96 0.3 WSW 19 26 10 14 1016.7 1017.1 10.8
01/04:30am 8.2 3.0 7.4 95 0.4 WSW 24 35 13 19 1016.1 1016.5 9.2
01/04:00am 8.4 4.2 7.6 95 0.4 SW 19 28 10 15 1015.6 1016.0 8.8
01/03:30am 8.4 4.0 7.5 94 0.4 SW 20 28 11 15 1015.3 1015.7 8.8
01/03:00am 8.2 4.7 7.4 95 0.4 WSW 15 24 8 13 1014.9 1015.3 8.8
01/02:30am 7.9 5.1 7.0 94 0.4 W 11 15 6 8 1014.5 1014.8 8.6
01/02:00am 8.0 4.5 7.1 94 0.4 WSW 15 24 8 13 1014.0 1014.3 8.6
01/01:30am 7.8 4.2 6.9 94 0.4 WSW 15 22 8 12 1013.4 1013.7 8.6
01/01:00am 7.9 4.0 7.0 94 0.4 WSW 17 22 9 12 1012.7 1013.0 8.6
01/12:30am 8.0 3.7 6.9 93 0.5 WSW 19 24 10 13 1012.0 1012.4 8.4
01/12:00am 7.9 3.3 6.7 92 0.6 WSW 20 30 11 16 1011.5 1011.9 8.4
 
Date/Time
EST
Temp
°C
App
Temp
°C
Dew
Point
°C
Rel
Hum
%
Delta-T
°C
Wind Press
QNH
hPa
Press
MSL
hPa
Rain since
9am
mm
Dir  Spd
km/h
Gust
km/h
Spd
kts
Gust
kts
30/11:30pm 8.1 3.2 6.7 91 0.7 WSW 22 32 12 17 1011.0 1011.3 8.4
30/11:00pm 7.9 3.3 6.5 91 0.7 WSW 20 32 11 17 1010.4 1010.7 8.2
30/10:30pm 8.1 2.8 6.6 90 0.7 WSW 24 37 13 20 1009.6 1009.9 8.2
30/10:00pm 8.1 2.4 6.7 91 0.7 WSW 26 37 14 20 1008.6 1008.9 8.2
30/09:30pm 7.8 1.3 6.6 92 0.6 W 30 44 16 24 1008.1 1008.4 8.0
30/09:00pm 7.7 1.5 6.2 90 0.7 WNW 28 43 15 23 1007.3 1007.6 7.0
30/08:30pm 6.7 -0.7 5.2 90 0.7 NW 33 44 18 24 1007.2 1007.5 6.4
30/08:00pm 6.4 -0.1 4.7 89 0.8 NW 28 39 15 21 1007.1 1007.4 6.0
30/07:30pm 6.7 0.1 4.4 85 1.0 NW 28 41 15 22 1007.1 1007.4 4.8
30/07:00pm 7.2 0.8 3.4 77 1.6 NW 26 39 14 21 1006.9 1007.2 3.4
30/06:30pm 6.7 0.6 3.0 77 1.6 NW 24 35 13 19 1006.9 1007.2 3.4
30/06:00pm 6.6 1.0 3.2 79 1.5 NW 22 32 12 17 1006.7 1007.0 3.4
30/05:30pm 7.2 1.6 3.3 76 1.7 WNW 22 33 12 18 1006.5 1006.8 3.4
30/05:00pm 7.7 1.4 3.7 76 1.7 WNW 26 35 14 19 1006.2 1006.5 3.4
30/04:30pm 8.5 2.3 4.1 74 1.9 WNW 26 37 14 20 1005.9 1006.2 3.4
30/04:00pm 9.1 2.6 4.9 75 1.9 WNW 28 44 15 24 1006.0 1006.3 3.4
30/03:30pm 9.1 2.6 4.7 74 2.0 WNW 28 39 15 21 1005.9 1006.2 3.4
30/03:00pm 8.7 3.1 5.3 79 1.6 WNW 24 41 13 22 1005.4 1005.7 3.4
30/02:30pm 7.7 2.0 5.0 83 1.2 WNW 24 37 13 20 1005.5 1005.8 3.4
30/02:00pm 7.7 1.7 5.3 85 1.1 WNW 26 35 14 19 1005.7 1006.0 3.4
30/01:40pm 7.9 0.2 5.5 85 1.1 NW 35 57 19 31 1005.6 1005.9 3.0
30/01:37pm 8.1 1.6 6.4 89 0.8 NNW 30 57 16 31 1005.4 1005.7 2.6
30/01:30pm 8.8 3.6 7.3 90 0.7 NNW 24 37 13 20 1005.0 1005.3 1.8
30/01:00pm 9.3 3.4 7.3 87 1.0 N 28 41 15 22 1004.8 1005.1 0.6
30/12:30pm 9.6 2.3 7.4 86 1.1 N 35 50 19 27 1005.1 1005.4 0.6
30/12:00pm 8.6 0.9 6.9 89 0.8 N 37 50 20 27 1005.9 1006.2 0.6
30/11:30am 8.3 1.2 6.3 87 0.9 N 33 46 18 25 1006.7 1007.0 0.6
30/11:00am 8.3 0.4 6.4 88 0.9 N 37 50 20 27 1007.3 1007.6 0.4
30/10:30am 7.4 -0.2 5.9 90 0.7 N 35 48 19 26 1007.6 1008.0 0.4
30/10:00am 7.6 0.0 5.6 87 0.9 N 35 48 19 26 1007.9 1008.2 0.0
30/09:30am 7.5 -1.0 5.3 86 1.0 N 39 50 21 27 1007.7 1008.1 0.0
30/09:00am 7.5 -1.4 5.3 86 1.0 N 41 54 22 29 1007.9 1008.2 1.6
30/08:30am 7.3 -0.8 5.3 87 0.9 N 37 52 20 28 1008.4 1008.7 1.6
30/08:00am 7.5 -1.0 5.1 85 1.1 N 39 52 21 28 1008.5 1008.8 1.4
30/07:30am 7.5 -0.3 5.1 85 1.1 N 35 46 19 25 1008.7 1009.0 1.4
30/07:00am 7.7 0.0 5.2 84 1.1 N 35 52 19 28 1008.7 1009.0 1.2
30/06:30am 7.5 0.2 5.3 86 1.0 N 33 43 18 23 1009.0 1009.3 1.2
30/06:00am 7.5 -0.2 5.5 87 0.9 N 35 46 19 25 1009.4 1009.7 1.0
30/05:30am 7.8 -0.3 5.3 84 1.1 N 37 50 20 27 1009.7 1010.0 0.6
30/05:00am 8.0 0.2 4.9 81 1.4 N 35 46 19 25 1009.9 1010.2 0.0
30/04:30am 8.4 0.2 4.8 78 1.6 N 37 50 20 27 1010.6 1010.9 0.0
30/04:00am 8.3 0.5 4.9 79 1.5 N 35 48 19 26 1011.1 1011.5 0.0
30/03:30am 8.3 0.8 4.7 78 1.6 N 33 43 18 23 1011.9 1012.3 0.0
30/03:00am 8.3 0.1 4.7 78 1.6 N 37 48 20 26 1012.0 1012.4 0.0
30/02:30am 8.5 1.0 4.7 77 1.7 N 33 43 18 23 1012.7 1013.0 0.0
30/02:00am 8.6 0.7 4.6 76 1.8 N 35 44 19 24 1012.9 1013.2 0.0
30/01:30am 8.6 1.7 4.4 75 1.9 N 30 41 16 22 1013.4 1013.7 0.0
30/01:00am 8.6 1.7 4.6 76 1.8 N 30 39 16 21 1014.2 1014.5 0.0
30/12:30am 8.7 0.8 4.5 75 1.9 N 35 44 19 24 1014.3 1014.6 0.0
30/12:00am 8.9 0.6 4.3 73 2.0 N 37 48 20 26 1015.0 1015.4 0.0
 
Date/Time
EST
Temp
°C
App
Temp
°C
Dew
Point
°C
Rel
Hum
%
Delta-T
°C
Wind Press
QNH
hPa
Press
MSL
hPa
Rain since
9am
mm
Dir  Spd
km/h
Gust
km/h
Spd
kts
Gust
kts
29/11:30pm 8.9 1.4 4.5 74 2.0 NNE 33 43 18 23 1015.4 1015.8 0.0
29/11:00pm 8.9 1.4 4.7 75 1.9 NNE 33 44 18 24 1015.9 1016.3 0.0
29/10:30pm 8.9 3.2 4.7 75 1.9 N 24 30 13 16 1016.6 1017.0 0.0
29/10:00pm 9.1 4.2 4.9 75 1.9 N 20 26 11 14 1017.3 1017.6 0.0
29/09:30pm 9.3 4.3 4.7 73 2.1 N 20 26 11 14 1017.5 1017.8 0.0
29/09:00pm 9.2 3.9 4.8 74 2.0 N 22 28 12 15 1017.8 1018.1 0.0
29/08:30pm 8.8 3.5 4.8 76 1.8 N 22 28 12 15 1017.8 1018.1 0.0
29/08:00pm 8.6 2.9 4.8 77 1.7 N 24 32 13 17 1017.9 1018.2 0.0
29/07:30pm 8.6 2.5 5.0 78 1.6 N 26 33 14 18 1017.9 1018.2 0.0
29/07:00pm 8.7 3.1 5.3 79 1.5 N 24 33 13 18 1018.1 1018.4 0.0
29/06:30pm 8.9 2.9 5.5 79 1.6 N 26 33 14 18 1018.3 1018.6 0.0
29/06:00pm 9.0 3.0 5.4 78 1.6 N 26 33 14 18 1018.3 1018.6 0.0

Other Formats:

Comma delimited format used in spreadsheet applications
http://www.bom.gov.au/fwo/IDV60801/IDV60801.95840.axf

JavaScript Object Notation format (JSON) in row-major order
http://www.bom.gov.au/fwo/IDV60801/IDV60801.95840.json